sensor_id;sensor_type;location;lat;lon;timestamp;temperature;humidity
45729;DHT22;31439;53.512;10.206;2022-10-16T00:01:11;15.00;99.90
45729;DHT22;31439;53.512;10.206;2022-10-16T00:03:41;14.90;99.90
45729;DHT22;31439;53.512;10.206;2022-10-16T00:06:08;14.90;99.90
45729;DHT22;31439;53.512;10.206;2022-10-16T00:08:34;14.90;99.90
45729;DHT22;31439;53.512;10.206;2022-10-16T00:11:02;14.90;99.90
45729;DHT22;31439;53.512;10.206;2022-10-16T00:13:29;14.90;99.90
45729;DHT22;31439;53.512;10.206;2022-10-16T00:15:56;14.80;99.90
45729;DHT22;31439;53.512;10.206;2022-10-16T00:18:21;14.80;99.90
45729;DHT22;31439;53.512;10.206;2022-10-16T00:20:47;14.80;99.90
45729;DHT22;31439;53.512;10.206;2022-10-16T00:23:12;14.80;99.90
45729;DHT22;31439;53.512;10.206;2022-10-16T00:25:38;14.80;99.90
45729;DHT22;31439;53.512;10.206;2022-10-16T00:28:04;14.70;99.90
45729;DHT22;31439;53.512;10.206;2022-10-16T00:30:29;14.70;99.90
45729;DHT22;31439;53.512;10.206;2022-10-16T00:32:56;14.70;99.90
45729;DHT22;31439;53.512;10.206;2022-10-16T00:35:21;14.70;99.90
45729;DHT22;31439;53.512;10.206;2022-10-16T00:37:47;14.70;99.90
45729;DHT22;31439;53.512;10.206;2022-10-16T00:40:13;14.70;99.90
45729;DHT22;31439;53.512;10.206;2022-10-16T00:42:38;14.70;99.90
45729;DHT22;31439;53.512;10.206;2022-10-16T00:45:05;14.60;99.90
45729;DHT22;31439;53.512;10.206;2022-10-16T00:47:34;14.60;99.90
45729;DHT22;31439;53.512;10.206;2022-10-16T00:50:08;14.60;99.90
45729;DHT22;31439;53.512;10.206;2022-10-16T00:52:35;14.60;99.90
45729;DHT22;31439;53.512;10.206;2022-10-16T00:55:02;14.50;99.90
45729;DHT22;31439;53.512;10.206;2022-10-16T00:57:29;14.50;99.90
45729;DHT22;31439;53.512;10.206;2022-10-16T00:59:54;14.50;99.90
45729;DHT22;31439;53.512;10.206;2022-10-16T01:02:20;14.40;99.90
45729;DHT22;31439;53.512;10.206;2022-10-16T01:04:49;14.50;99.90
45729;DHT22;31439;53.512;10.206;2022-10-16T01:07:40;14.40;99.90
45729;DHT22;31439;53.512;10.206;2022-10-16T01:10:40;14.40;99.90
45729;DHT22;31439;53.512;10.206;2022-10-16T01:13:12;14.40;99.90
45729;DHT22;31439;53.512;10.206;2022-10-16T01:28:52;14.30;99.90
45729;DHT22;31439;53.512;10.206;2022-10-16T01:31:24;14.30;99.90
45729;DHT22;31439;53.512;10.206;2022-10-16T01:34:02;14.30;99.90
45729;DHT22;31439;53.512;10.206;2022-10-16T01:36:38;14.30;99.90
45729;DHT22;31439;53.512;10.206;2022-10-16T01:39:06;14.30;99.90
45729;DHT22;31439;53.512;10.206;2022-10-16T01:41:43;14.30;99.90
45729;DHT22;31439;53.512;10.206;2022-10-16T01:44:31;14.30;99.90
45729;DHT22;31439;53.512;10.206;2022-10-16T01:46:58;14.20;99.90
45729;DHT22;31439;53.512;10.206;2022-10-16T01:49:27;14.20;99.90
45729;DHT22;31439;53.512;10.206;2022-10-16T01:51:56;14.20;99.90
45729;DHT22;31439;53.512;10.206;2022-10-16T01:54:27;14.20;99.90
45729;DHT22;31439;53.512;10.206;2022-10-16T01:56:54;14.10;99.90
45729;DHT22;31439;53.512;10.206;2022-10-16T01:59:23;14.20;99.90
45729;DHT22;31439;53.512;10.206;2022-10-16T02:01:54;14.20;99.90
45729;DHT22;31439;53.512;10.206;2022-10-16T02:04:26;14.20;99.90
45729;DHT22;31439;53.512;10.206;2022-10-16T02:06:53;14.10;99.90
45729;DHT22;31439;53.512;10.206;2022-10-16T02:09:20;14.10;99.90
45729;DHT22;31439;53.512;10.206;2022-10-16T02:11:46;14.10;99.90
45729;DHT22;31439;53.512;10.206;2022-10-16T02:14:12;14.10;99.90
45729;DHT22;31439;53.512;10.206;2022-10-16T02:16:43;14.00;99.90
45729;DHT22;31439;53.512;10.206;2022-10-16T02:19:09;14.00;99.90
45729;DHT22;31439;53.512;10.206;2022-10-16T02:21:55;14.00;99.90
45729;DHT22;31439;53.512;10.206;2022-10-16T02:27:27;14.00;99.90
45729;DHT22;31439;53.512;10.206;2022-10-16T02:32:34;13.90;99.90
45729;DHT22;31439;53.512;10.206;2022-10-16T02:35:00;14.10;99.90
45729;DHT22;31439;53.512;10.206;2022-10-16T02:37:27;14.00;99.90
45729;DHT22;31439;53.512;10.206;2022-10-16T02:39:55;13.90;99.90
45729;DHT22;31439;53.512;10.206;2022-10-16T02:42:21;13.90;99.90
45729;DHT22;31439;53.512;10.206;2022-10-16T02:44:52;13.90;99.90
45729;DHT22;31439;53.512;10.206;2022-10-16T02:47:18;13.90;99.90
45729;DHT22;31439;53.512;10.206;2022-10-16T02:49:43;13.80;99.90
45729;DHT22;31439;53.512;10.206;2022-10-16T02:52:09;13.80;99.90
45729;DHT22;31439;53.512;10.206;2022-10-16T02:54:35;13.80;99.90
45729;DHT22;31439;53.512;10.206;2022-10-16T02:57:00;13.80;99.90
45729;DHT22;31439;53.512;10.206;2022-10-16T02:59:26;13.80;99.90
45729;DHT22;31439;53.512;10.206;2022-10-16T03:01:51;13.90;99.90
45729;DHT22;31439;53.512;10.206;2022-10-16T03:04:17;13.90;99.90
45729;DHT22;31439;53.512;10.206;2022-10-16T03:06:42;13.70;99.90
45729;DHT22;31439;53.512;10.206;2022-10-16T03:09:08;13.70;99.90
45729;DHT22;31439;53.512;10.206;2022-10-16T03:11:33;13.70;99.90
45729;DHT22;31439;53.512;10.206;2022-10-16T03:13:59;13.70;99.90
45729;DHT22;31439;53.512;10.206;2022-10-16T03:16:24;13.70;99.90
45729;DHT22;31439;53.512;10.206;2022-10-16T03:18:50;13.70;99.90
45729;DHT22;31439;53.512;10.206;2022-10-16T03:21:16;13.60;99.90
45729;DHT22;31439;53.512;10.206;2022-10-16T03:23:42;13.50;99.90
45729;DHT22;31439;53.512;10.206;2022-10-16T03:26:07;13.70;99.90
45729;DHT22;31439;53.512;10.206;2022-10-16T03:28:33;13.70;99.90
45729;DHT22;31439;53.512;10.206;2022-10-16T03:30:58;13.60;99.90
45729;DHT22;31439;53.512;10.206;2022-10-16T03:33:24;13.60;99.90
45729;DHT22;31439;53.512;10.206;2022-10-16T03:35:53;13.60;99.90
45729;DHT22;31439;53.512;10.206;2022-10-16T03:38:20;13.60;99.90
45729;DHT22;31439;53.512;10.206;2022-10-16T03:40:45;13.50;99.90
45729;DHT22;31439;53.512;10.206;2022-10-16T03:43:11;13.60;99.90
45729;DHT22;31439;53.512;10.206;2022-10-16T03:45:36;13.50;99.90
45729;DHT22;31439;53.512;10.206;2022-10-16T03:48:05;13.40;99.90
45729;DHT22;31439;53.512;10.206;2022-10-16T03:50:31;13.50;99.90
45729;DHT22;31439;53.512;10.206;2022-10-16T03:52:56;13.60;99.90
45729;DHT22;31439;53.512;10.206;2022-10-16T03:55:22;13.50;99.90
45729;DHT22;31439;53.512;10.206;2022-10-16T03:57:48;13.40;99.90
45729;DHT22;31439;53.512;10.206;2022-10-16T04:00:13;13.40;99.90
45729;DHT22;31439;53.512;10.206;2022-10-16T04:02:39;13.40;99.90
45729;DHT22;31439;53.512;10.206;2022-10-16T04:05:05;13.50;99.90
45729;DHT22;31439;53.512;10.206;2022-10-16T04:07:31;13.50;99.90
45729;DHT22;31439;53.512;10.206;2022-10-16T04:09:56;13.60;99.90
45729;DHT22;31439;53.512;10.206;2022-10-16T04:12:24;13.30;99.90
45729;DHT22;31439;53.512;10.206;2022-10-16T04:14:50;13.40;99.90
45729;DHT22;31439;53.512;10.206;2022-10-16T04:17:15;13.40;99.90
45729;DHT22;31439;53.512;10.206;2022-10-16T04:19:41;13.40;99.90
45729;DHT22;31439;53.512;10.206;2022-10-16T04:22:06;13.40;99.90
45729;DHT22;31439;53.512;10.206;2022-10-16T04:24:32;13.30;99.90
45729;DHT22;31439;53.512;10.206;2022-10-16T04:26:57;13.30;99.90
45729;DHT22;31439;53.512;10.206;2022-10-16T04:29:23;13.30;99.90
45729;DHT22;31439;53.512;10.206;2022-10-16T04:31:49;13.30;99.90
45729;DHT22;31439;53.512;10.206;2022-10-16T04:34:14;13.30;99.90
45729;DHT22;31439;53.512;10.206;2022-10-16T04:36:40;13.20;99.90
45729;DHT22;31439;53.512;10.206;2022-10-16T04:39:05;13.20;99.90
45729;DHT22;31439;53.512;10.206;2022-10-16T04:41:31;13.20;99.90
45729;DHT22;31439;53.512;10.206;2022-10-16T04:43:56;13.20;99.90
45729;DHT22;31439;53.512;10.206;2022-10-16T04:46:22;13.20;99.90
45729;DHT22;31439;53.512;10.206;2022-10-16T04:48:47;13.10;99.90
45729;DHT22;31439;53.512;10.206;2022-10-16T04:51:13;13.20;99.90
45729;DHT22;31439;53.512;10.206;2022-10-16T04:53:39;13.20;99.90
45729;DHT22;31439;53.512;10.206;2022-10-16T04:56:05;13.30;99.90
45729;DHT22;31439;53.512;10.206;2022-10-16T04:58:30;13.20;99.90
45729;DHT22;31439;53.512;10.206;2022-10-16T05:00:56;13.20;99.90
45729;DHT22;31439;53.512;10.206;2022-10-16T05:03:21;13.20;99.90
45729;DHT22;31439;53.512;10.206;2022-10-16T05:05:47;13.10;99.90
45729;DHT22;31439;53.512;10.206;2022-10-16T05:08:14;13.10;99.90
45729;DHT22;31439;53.512;10.206;2022-10-16T05:10:44;13.10;99.90
45729;DHT22;31439;53.512;10.206;2022-10-16T05:13:10;13.10;99.90
45729;DHT22;31439;53.512;10.206;2022-10-16T05:15:36;13.10;99.90
45729;DHT22;31439;53.512;10.206;2022-10-16T05:18:02;13.10;99.90
45729;DHT22;31439;53.512;10.206;2022-10-16T05:20:28;13.10;99.90
45729;DHT22;31439;53.512;10.206;2022-10-16T05:22:53;13.10;99.90
45729;DHT22;31439;53.512;10.206;2022-10-16T05:25:19;13.10;99.90
45729;DHT22;31439;53.512;10.206;2022-10-16T05:27:48;13.10;99.90
45729;DHT22;31439;53.512;10.206;2022-10-16T05:30:15;13.10;99.90
45729;DHT22;31439;53.512;10.206;2022-10-16T05:32:41;13.00;99.90
45729;DHT22;31439;53.512;10.206;2022-10-16T05:35:06;13.20;99.90
45729;DHT22;31439;53.512;10.206;2022-10-16T05:37:33;13.00;99.90
45729;DHT22;31439;53.512;10.206;2022-10-16T05:39:58;13.00;99.90
45729;DHT22;31439;53.512;10.206;2022-10-16T05:42:24;13.10;99.90
45729;DHT22;31439;53.512;10.206;2022-10-16T05:44:50;13.20;99.90
45729;DHT22;31439;53.512;10.206;2022-10-16T05:47:15;13.10;99.90
45729;DHT22;31439;53.512;10.206;2022-10-16T05:49:41;13.00;99.90
45729;DHT22;31439;53.512;10.206;2022-10-16T05:52:06;13.00;99.90
45729;DHT22;31439;53.512;10.206;2022-10-16T05:54:32;12.90;99.90
45729;DHT22;31439;53.512;10.206;2022-10-16T05:56:57;13.10;99.90
45729;DHT22;31439;53.512;10.206;2022-10-16T05:59:23;12.80;99.90
45729;DHT22;31439;53.512;10.206;2022-10-16T06:01:48;12.80;99.90
45729;DHT22;31439;53.512;10.206;2022-10-16T06:04:14;13.00;99.90
45729;DHT22;31439;53.512;10.206;2022-10-16T06:06:39;12.90;99.90
45729;DHT22;31439;53.512;10.206;2022-10-16T06:09:05;13.00;99.90
45729;DHT22;31439;53.512;10.206;2022-10-16T06:11:32;13.00;99.90
45729;DHT22;31439;53.512;10.206;2022-10-16T06:13:59;13.00;99.90
45729;DHT22;31439;53.512;10.206;2022-10-16T06:16:27;13.00;99.90
45729;DHT22;31439;53.512;10.206;2022-10-16T06:18:53;13.00;99.90
45729;DHT22;31439;53.512;10.206;2022-10-16T06:21:22;12.80;99.90
45729;DHT22;31439;53.512;10.206;2022-10-16T06:23:50;13.00;99.90
45729;DHT22;31439;53.512;10.206;2022-10-16T06:26:18;13.00;99.90
45729;DHT22;31439;53.512;10.206;2022-10-16T06:28:44;13.00;99.90
45729;DHT22;31439;53.512;10.206;2022-10-16T06:31:10;13.00;99.90
45729;DHT22;31439;53.512;10.206;2022-10-16T06:33:37;13.10;99.90
45729;DHT22;31439;53.512;10.206;2022-10-16T06:36:08;13.10;99.90
45729;DHT22;31439;53.512;10.206;2022-10-16T06:38:35;13.00;99.90
45729;DHT22;31439;53.512;10.206;2022-10-16T06:41:01;13.00;99.90
45729;DHT22;31439;53.512;10.206;2022-10-16T06:43:28;13.10;99.90
45729;DHT22;31439;53.512;10.206;2022-10-16T06:45:58;13.10;99.90
45729;DHT22;31439;53.512;10.206;2022-10-16T06:48:24;13.00;99.90
45729;DHT22;31439;53.512;10.206;2022-10-16T06:53:27;13.00;99.90
45729;DHT22;31439;53.512;10.206;2022-10-16T06:55:53;13.00;99.90
45729;DHT22;31439;53.512;10.206;2022-10-16T06:58:18;13.10;99.90
45729;DHT22;31439;53.512;10.206;2022-10-16T07:00:44;13.10;99.90
45729;DHT22;31439;53.512;10.206;2022-10-16T07:03:10;13.10;99.90
45729;DHT22;31439;53.512;10.206;2022-10-16T07:05:42;13.10;99.90
45729;DHT22;31439;53.512;10.206;2022-10-16T07:08:09;13.20;99.90
45729;DHT22;31439;53.512;10.206;2022-10-16T07:10:35;13.30;99.90
45729;DHT22;31439;53.512;10.206;2022-10-16T07:13:01;13.20;99.90
45729;DHT22;31439;53.512;10.206;2022-10-16T07:15:27;13.30;99.90
45729;DHT22;31439;53.512;10.206;2022-10-16T07:17:53;13.20;99.90
45729;DHT22;31439;53.512;10.206;2022-10-16T07:20:19;13.30;99.90
45729;DHT22;31439;53.512;10.206;2022-10-16T07:22:44;13.20;99.90
45729;DHT22;31439;53.512;10.206;2022-10-16T07:25:10;13.40;99.90
45729;DHT22;31439;53.512;10.206;2022-10-16T07:27:36;13.40;99.90
45729;DHT22;31439;53.512;10.206;2022-10-16T07:30:02;13.50;99.90
45729;DHT22;31439;53.512;10.206;2022-10-16T07:32:31;13.50;99.90
45729;DHT22;31439;53.512;10.206;2022-10-16T07:34:57;13.50;99.90
45729;DHT22;31439;53.512;10.206;2022-10-16T07:37:23;13.70;99.90
45729;DHT22;31439;53.512;10.206;2022-10-16T07:39:48;13.60;99.90
45729;DHT22;31439;53.512;10.206;2022-10-16T07:42:14;13.80;99.90
45729;DHT22;31439;53.512;10.206;2022-10-16T07:44:39;13.80;99.90
45729;DHT22;31439;53.512;10.206;2022-10-16T07:47:06;14.00;99.90
45729;DHT22;31439;53.512;10.206;2022-10-16T07:49:31;14.10;99.90
45729;DHT22;31439;53.512;10.206;2022-10-16T07:51:57;14.10;99.90
45729;DHT22;31439;53.512;10.206;2022-10-16T07:54:22;14.20;99.90
45729;DHT22;31439;53.512;10.206;2022-10-16T07:56:48;14.20;99.90
45729;DHT22;31439;53.512;10.206;2022-10-16T07:59:14;14.40;99.90
45729;DHT22;31439;53.512;10.206;2022-10-16T08:01:39;14.40;99.90
45729;DHT22;31439;53.512;10.206;2022-10-16T08:04:08;14.60;99.90
45729;DHT22;31439;53.512;10.206;2022-10-16T08:06:39;14.70;99.90
45729;DHT22;31439;53.512;10.206;2022-10-16T08:09:05;14.90;99.90
45729;DHT22;31439;53.512;10.206;2022-10-16T08:11:31;15.20;99.90
45729;DHT22;31439;53.512;10.206;2022-10-16T08:13:57;15.20;99.90
45729;DHT22;31439;53.512;10.206;2022-10-16T08:16:22;15.20;99.90
45729;DHT22;31439;53.512;10.206;2022-10-16T08:18:48;15.20;99.90
45729;DHT22;31439;53.512;10.206;2022-10-16T08:21:16;15.10;99.90
45729;DHT22;31439;53.512;10.206;2022-10-16T08:23:42;15.10;99.90
45729;DHT22;31439;53.512;10.206;2022-10-16T08:26:08;15.00;99.90
45729;DHT22;31439;53.512;10.206;2022-10-16T08:28:34;15.00;99.90
45729;DHT22;31439;53.512;10.206;2022-10-16T08:31:07;15.00;99.90
45729;DHT22;31439;53.512;10.206;2022-10-16T08:33:33;15.00;99.90
45729;DHT22;31439;53.512;10.206;2022-10-16T08:36:00;14.90;99.90
45729;DHT22;31439;53.512;10.206;2022-10-16T08:38:26;14.90;99.90
45729;DHT22;31439;53.512;10.206;2022-10-16T08:40:55;15.00;99.90
45729;DHT22;31439;53.512;10.206;2022-10-16T08:49:11;15.10;99.90
45729;DHT22;31439;53.512;10.206;2022-10-16T08:51:39;15.20;99.90
45729;DHT22;31439;53.512;10.206;2022-10-16T08:54:06;15.40;99.90
45729;DHT22;31439;53.512;10.206;2022-10-16T08:56:35;15.40;99.90
45729;DHT22;31439;53.512;10.206;2022-10-16T08:59:01;15.50;99.90
45729;DHT22;31439;53.512;10.206;2022-10-16T09:01:41;15.50;99.90
45729;DHT22;31439;53.512;10.206;2022-10-16T09:07:06;15.70;99.90
45729;DHT22;31439;53.512;10.206;2022-10-16T09:12:35;15.80;99.90
45729;DHT22;31439;53.512;10.206;2022-10-16T09:15:07;15.90;99.90
45729;DHT22;31439;53.512;10.206;2022-10-16T09:23:11;16.10;99.90
45729;DHT22;31439;53.512;10.206;2022-10-16T09:25:39;16.10;99.90
45729;DHT22;31439;53.512;10.206;2022-10-16T09:28:08;16.20;99.90
45729;DHT22;31439;53.512;10.206;2022-10-16T09:30:34;16.20;99.90
45729;DHT22;31439;53.512;10.206;2022-10-16T09:33:00;16.30;99.90
45729;DHT22;31439;53.512;10.206;2022-10-16T09:35:42;16.20;99.90
45729;DHT22;31439;53.512;10.206;2022-10-16T09:38:09;16.20;99.90
45729;DHT22;31439;53.512;10.206;2022-10-16T09:40:39;16.20;99.90
45729;DHT22;31439;53.512;10.206;2022-10-16T09:46:03;16.40;99.90
45729;DHT22;31439;53.512;10.206;2022-10-16T09:48:37;16.50;99.90
45729;DHT22;31439;53.512;10.206;2022-10-16T09:51:06;16.60;99.90
45729;DHT22;31439;53.512;10.206;2022-10-16T09:53:43;16.60;99.90
45729;DHT22;31439;53.512;10.206;2022-10-16T09:56:11;16.50;99.90
45729;DHT22;31439;53.512;10.206;2022-10-16T09:58:42;16.50;99.90
45729;DHT22;31439;53.512;10.206;2022-10-16T10:01:14;16.60;99.90
45729;DHT22;31439;53.512;10.206;2022-10-16T10:03:42;16.70;99.90
45729;DHT22;31439;53.512;10.206;2022-10-16T10:09:15;16.50;99.90
45729;DHT22;31439;53.512;10.206;2022-10-16T10:14:22;16.80;99.90
45729;DHT22;31439;53.512;10.206;2022-10-16T10:16:49;16.90;99.90
45729;DHT22;31439;53.512;10.206;2022-10-16T10:19:23;16.90;99.90
45729;DHT22;31439;53.512;10.206;2022-10-16T10:21:50;17.00;99.90
45729;DHT22;31439;53.512;10.206;2022-10-16T10:24:18;17.10;99.90
45729;DHT22;31439;53.512;10.206;2022-10-16T10:26:54;17.10;99.90
45729;DHT22;31439;53.512;10.206;2022-10-16T10:42:53;17.40;99.90
45729;DHT22;31439;53.512;10.206;2022-10-16T10:48:24;17.50;99.90
45729;DHT22;31439;53.512;10.206;2022-10-16T10:50:59;17.50;99.90
45729;DHT22;31439;53.512;10.206;2022-10-16T10:53:44;17.60;99.90
45729;DHT22;31439;53.512;10.206;2022-10-16T10:56:18;17.70;99.90
45729;DHT22;31439;53.512;10.206;2022-10-16T11:06:57;17.90;99.90
45729;DHT22;31439;53.512;10.206;2022-10-16T11:09:27;17.90;99.90
45729;DHT22;31439;53.512;10.206;2022-10-16T11:12:07;17.90;99.90
45729;DHT22;31439;53.512;10.206;2022-10-16T11:14:52;18.10;99.90
45729;DHT22;31439;53.512;10.206;2022-10-16T11:17:25;18.20;99.90
45729;DHT22;31439;53.512;10.206;2022-10-16T11:20:24;18.30;99.90
45729;DHT22;31439;53.512;10.206;2022-10-16T11:25:30;18.30;99.90
45729;DHT22;31439;53.512;10.206;2022-10-16T11:28:15;18.40;99.90
45729;DHT22;31439;53.512;10.206;2022-10-16T11:30:52;18.40;99.90
45729;DHT22;31439;53.512;10.206;2022-10-16T11:35:51;18.80;99.90
45729;DHT22;31439;53.512;10.206;2022-10-16T11:46:48;18.80;99.90
45729;DHT22;31439;53.512;10.206;2022-10-16T11:49:19;18.50;99.90
45729;DHT22;31439;53.512;10.206;2022-10-16T11:52:13;18.30;99.90
45729;DHT22;31439;53.512;10.206;2022-10-16T11:55:04;18.30;99.90
45729;DHT22;31439;53.512;10.206;2022-10-16T11:57:34;18.20;99.90
45729;DHT22;31439;53.512;10.206;2022-10-16T12:03:14;18.50;99.90
45729;DHT22;31439;53.512;10.206;2022-10-16T12:08:24;18.20;99.90
45729;DHT22;31439;53.512;10.206;2022-10-16T12:10:51;18.10;99.90
45729;DHT22;31439;53.512;10.206;2022-10-16T12:13:36;18.10;99.90
45729;DHT22;31439;53.512;10.206;2022-10-16T12:18:37;18.40;99.90
45729;DHT22;31439;53.512;10.206;2022-10-16T12:21:03;18.20;99.90
45729;DHT22;31439;53.512;10.206;2022-10-16T12:23:36;18.30;99.90
45729;DHT22;31439;53.512;10.206;2022-10-16T12:26:03;18.40;99.90
45729;DHT22;31439;53.512;10.206;2022-10-16T12:28:33;18.40;99.90
45729;DHT22;31439;53.512;10.206;2022-10-16T12:31:05;18.30;99.90
45729;DHT22;31439;53.512;10.206;2022-10-16T12:33:36;18.10;99.90
45729;DHT22;31439;53.512;10.206;2022-10-16T12:36:13;17.90;99.90
45729;DHT22;31439;53.512;10.206;2022-10-16T12:38:47;17.70;99.90
45729;DHT22;31439;53.512;10.206;2022-10-16T12:41:31;17.70;99.90
45729;DHT22;31439;53.512;10.206;2022-10-16T12:43:57;17.60;99.90
45729;DHT22;31439;53.512;10.206;2022-10-16T12:46:43;17.50;99.90
45729;DHT22;31439;53.512;10.206;2022-10-16T12:51:38;17.50;99.90
45729;DHT22;31439;53.512;10.206;2022-10-16T12:54:17;17.50;99.90
45729;DHT22;31439;53.512;10.206;2022-10-16T13:02:57;17.50;99.90
45729;DHT22;31439;53.512;10.206;2022-10-16T13:05:34;17.40;99.90
45729;DHT22;31439;53.512;10.206;2022-10-16T13:24:11;17.40;99.90
45729;DHT22;31439;53.512;10.206;2022-10-16T13:29:23;17.60;99.90
45729;DHT22;31439;53.512;10.206;2022-10-16T13:31:49;17.70;99.90
45729;DHT22;31439;53.512;10.206;2022-10-16T13:34:19;17.70;99.90
45729;DHT22;31439;53.512;10.206;2022-10-16T13:36:51;17.70;99.90
45729;DHT22;31439;53.512;10.206;2022-10-16T13:39:28;17.60;99.90
45729;DHT22;31439;53.512;10.206;2022-10-16T13:42:06;17.60;99.90
45729;DHT22;31439;53.512;10.206;2022-10-16T13:44:40;17.50;99.90
45729;DHT22;31439;53.512;10.206;2022-10-16T13:47:15;17.50;99.90
45729;DHT22;31439;53.512;10.206;2022-10-16T13:49:41;17.50;99.90
45729;DHT22;31439;53.512;10.206;2022-10-16T13:52:17;17.40;99.90
45729;DHT22;31439;53.512;10.206;2022-10-16T13:54:43;17.30;99.90
45729;DHT22;31439;53.512;10.206;2022-10-16T13:57:13;17.40;99.90
45729;DHT22;31439;53.512;10.206;2022-10-16T13:59:39;17.40;99.90
45729;DHT22;31439;53.512;10.206;2022-10-16T14:02:37;17.30;99.90
45729;DHT22;31439;53.512;10.206;2022-10-16T14:05:08;17.40;99.90
45729;DHT22;31439;53.512;10.206;2022-10-16T14:07:35;17.50;99.90
45729;DHT22;31439;53.512;10.206;2022-10-16T14:10:22;17.60;99.90
45729;DHT22;31439;53.512;10.206;2022-10-16T14:12:56;17.80;99.90
45729;DHT22;31439;53.512;10.206;2022-10-16T14:15:23;17.90;99.90
45729;DHT22;31439;53.512;10.206;2022-10-16T14:17:50;18.00;99.90
45729;DHT22;31439;53.512;10.206;2022-10-16T14:20:27;17.90;99.90
45729;DHT22;31439;53.512;10.206;2022-10-16T14:23:23;17.90;99.90
45729;DHT22;31439;53.512;10.206;2022-10-16T14:25:53;17.80;99.90
45729;DHT22;31439;53.512;10.206;2022-10-16T14:28:22;17.90;99.90
45729;DHT22;31439;53.512;10.206;2022-10-16T14:30:57;17.90;99.90
45729;DHT22;31439;53.512;10.206;2022-10-16T14:38:35;18.00;99.90
45729;DHT22;31439;53.512;10.206;2022-10-16T14:41:03;18.00;99.90
45729;DHT22;31439;53.512;10.206;2022-10-16T14:43:56;18.00;99.90
45729;DHT22;31439;53.512;10.206;2022-10-16T14:46:30;18.10;99.90
45729;DHT22;31439;53.512;10.206;2022-10-16T14:51:34;18.10;99.90
45729;DHT22;31439;53.512;10.206;2022-10-16T14:53:59;18.20;99.90
45729;DHT22;31439;53.512;10.206;2022-10-16T14:56:44;18.20;99.90
45729;DHT22;31439;53.512;10.206;2022-10-16T14:59:21;18.20;99.90
45729;DHT22;31439;53.512;10.206;2022-10-16T15:01:49;18.20;99.90
45729;DHT22;31439;53.512;10.206;2022-10-16T15:04:15;18.10;99.90
45729;DHT22;31439;53.512;10.206;2022-10-16T15:06:41;18.10;99.90
45729;DHT22;31439;53.512;10.206;2022-10-16T15:09:07;18.00;99.90
45729;DHT22;31439;53.512;10.206;2022-10-16T15:11:33;18.00;99.90
45729;DHT22;31439;53.512;10.206;2022-10-16T15:13:59;18.00;99.90
45729;DHT22;31439;53.512;10.206;2022-10-16T15:16:25;18.00;99.90
45729;DHT22;31439;53.512;10.206;2022-10-16T15:18:50;17.90;99.90
45729;DHT22;31439;53.512;10.206;2022-10-16T15:21:34;17.90;99.90
45729;DHT22;31439;53.512;10.206;2022-10-16T15:24:00;17.80;99.90
45729;DHT22;31439;53.512;10.206;2022-10-16T15:26:27;17.80;99.90
45729;DHT22;31439;53.512;10.206;2022-10-16T15:28:53;17.70;99.90
45729;DHT22;31439;53.512;10.206;2022-10-16T15:31:19;17.70;99.90
45729;DHT22;31439;53.512;10.206;2022-10-16T15:33:50;17.60;99.90
45729;DHT22;31439;53.512;10.206;2022-10-16T15:36:25;17.50;99.90
45729;DHT22;31439;53.512;10.206;2022-10-16T15:38:51;17.50;99.90
45729;DHT22;31439;53.512;10.206;2022-10-16T15:41:16;17.40;99.90
45729;DHT22;31439;53.512;10.206;2022-10-16T15:43:42;17.30;99.90
45729;DHT22;31439;53.512;10.206;2022-10-16T15:46:11;17.30;99.90
45729;DHT22;31439;53.512;10.206;2022-10-16T15:48:37;17.30;99.90
45729;DHT22;31439;53.512;10.206;2022-10-16T15:51:07;17.20;99.90
45729;DHT22;31439;53.512;10.206;2022-10-16T15:53:33;17.10;99.90
45729;DHT22;31439;53.512;10.206;2022-10-16T15:56:02;17.00;99.90
45729;DHT22;31439;53.512;10.206;2022-10-16T15:58:28;17.00;99.90
45729;DHT22;31439;53.512;10.206;2022-10-16T16:00:55;16.90;99.90
45729;DHT22;31439;53.512;10.206;2022-10-16T16:03:21;16.90;99.90
45729;DHT22;31439;53.512;10.206;2022-10-16T16:05:47;16.80;99.90
45729;DHT22;31439;53.512;10.206;2022-10-16T16:08:12;16.90;99.90
45729;DHT22;31439;53.512;10.206;2022-10-16T16:10:38;16.80;99.90
45729;DHT22;31439;53.512;10.206;2022-10-16T16:13:04;16.80;99.90
45729;DHT22;31439;53.512;10.206;2022-10-16T16:15:29;16.70;99.90
45729;DHT22;31439;53.512;10.206;2022-10-16T16:17:55;16.70;99.90
45729;DHT22;31439;53.512;10.206;2022-10-16T16:20:20;16.70;99.90
45729;DHT22;31439;53.512;10.206;2022-10-16T16:22:46;16.60;99.90
45729;DHT22;31439;53.512;10.206;2022-10-16T16:25:11;16.50;99.90
45729;DHT22;31439;53.512;10.206;2022-10-16T16:27:37;16.50;99.90
45729;DHT22;31439;53.512;10.206;2022-10-16T16:30:05;16.40;99.90
45729;DHT22;31439;53.512;10.206;2022-10-16T16:32:33;16.30;99.90
45729;DHT22;31439;53.512;10.206;2022-10-16T16:34:58;16.20;99.90
45729;DHT22;31439;53.512;10.206;2022-10-16T16:37:24;16.10;99.90
45729;DHT22;31439;53.512;10.206;2022-10-16T16:39:50;16.00;99.90
45729;DHT22;31439;53.512;10.206;2022-10-16T16:42:16;15.90;99.90
45729;DHT22;31439;53.512;10.206;2022-10-16T16:44:41;15.90;99.90
45729;DHT22;31439;53.512;10.206;2022-10-16T16:47:07;15.70;99.90
45729;DHT22;31439;53.512;10.206;2022-10-16T16:49:33;15.70;99.90
45729;DHT22;31439;53.512;10.206;2022-10-16T16:51:58;15.70;99.90
45729;DHT22;31439;53.512;10.206;2022-10-16T16:54:24;15.80;99.90
45729;DHT22;31439;53.512;10.206;2022-10-16T16:56:50;15.80;99.90
45729;DHT22;31439;53.512;10.206;2022-10-16T16:59:18;15.70;99.90
45729;DHT22;31439;53.512;10.206;2022-10-16T17:01:45;15.60;99.90
45729;DHT22;31439;53.512;10.206;2022-10-16T17:04:11;15.50;99.90
45729;DHT22;31439;53.512;10.206;2022-10-16T17:06:37;15.50;99.90
45729;DHT22;31439;53.512;10.206;2022-10-16T17:09:04;15.50;99.90
45729;DHT22;31439;53.512;10.206;2022-10-16T17:11:30;15.40;99.90
45729;DHT22;31439;53.512;10.206;2022-10-16T17:13:57;15.40;99.90
45729;DHT22;31439;53.512;10.206;2022-10-16T17:16:29;15.30;99.90
45729;DHT22;31439;53.512;10.206;2022-10-16T17:18:58;15.30;99.90
45729;DHT22;31439;53.512;10.206;2022-10-16T17:21:23;15.30;99.90
45729;DHT22;31439;53.512;10.206;2022-10-16T17:23:51;15.30;99.90
45729;DHT22;31439;53.512;10.206;2022-10-16T17:26:18;15.30;99.90
45729;DHT22;31439;53.512;10.206;2022-10-16T17:28:43;15.30;99.90
45729;DHT22;31439;53.512;10.206;2022-10-16T17:31:39;15.30;99.90
45729;DHT22;31439;53.512;10.206;2022-10-16T17:34:07;15.20;99.90